RYR30KM LIPH-GMMX
Flight info
| Callsign | RYR30KM |
|---|---|
| Flight time | 3h 19m |
| Altitude | 33000 |
| Route | ROVIG DCT TORTU DCT ZETCO DCT SORAS N850 NELAS/N0443F350 N850 ADX Z237 OKITI M603 ALT DCT AMR N860 BERUM UG850 OBOGA |
| Aircraft | B738/M-SDE3FGILRWY/SB1 |
Departure
| Time | 2026-04-28 05:09 |
|---|---|
| Airport | Treviso Airport (LIPH) |
Arrival
| Time | 2026-04-28 08:28 |
|---|---|
| Airport | Marrakesh Menara Airport (GMMX) |
| Time | Latitude | Longitude | Altitude | Speed | Heading |
|---|---|---|---|---|---|
| 2026-04-28 04:34 | 45.65397 | 12.20484 | 73 ft | 0 kts | 339° |
| 2026-04-28 04:58 | 45.65393 | 12.20486 | 73 ft | 4 kts | 338° |
| 2026-04-28 04:58 | 45.65369 | 12.20502 | 63 ft | 4 kts | 327° |
| 2026-04-28 04:59 | 45.65350 | 12.20526 | 65 ft | 4 kts | 295° |
| 2026-04-28 04:59 | 45.65347 | 12.20550 | 65 ft | 0 kts | 249° |
| 2026-04-28 05:02 | 45.65346 | 12.20546 | 66 ft | 2 kts | 249° |
| 2026-04-28 05:03 | 45.65337 | 12.20510 | 69 ft | 6 kts | 250° |
| 2026-04-28 05:03 | 45.65317 | 12.20435 | 66 ft | 9 kts | 250° |
| 2026-04-28 05:03 | 45.65294 | 12.20357 | 69 ft | 8 kts | 237° |
| 2026-04-28 05:03 | 45.65250 | 12.20301 | 65 ft | 9 kts | 211° |
| 2026-04-28 05:04 | 45.65187 | 12.20258 | 70 ft | 11 kts | 206° |
| 2026-04-28 05:04 | 45.65105 | 12.20198 | 62 ft | 15 kts | 214° |
| 2026-04-28 05:04 | 45.65029 | 12.20075 | 62 ft | 18 kts | 244° |
| 2026-04-28 05:04 | 45.64981 | 12.19900 | 63 ft | 19 kts | 249° |
| 2026-04-28 05:05 | 45.64932 | 12.19714 | 65 ft | 20 kts | 249° |
| 2026-04-28 05:05 | 45.64883 | 12.19527 | 61 ft | 20 kts | 249° |
| 2026-04-28 05:05 | 45.64835 | 12.19349 | 66 ft | 19 kts | 248° |
| 2026-04-28 05:05 | 45.64788 | 12.19174 | 68 ft | 19 kts | 250° |
| 2026-04-28 05:06 | 45.64743 | 12.19001 | 62 ft | 19 kts | 249° |
| 2026-04-28 05:06 | 45.64696 | 12.18824 | 64 ft | 19 kts | 249° |
| 2026-04-28 05:06 | 45.64650 | 12.18649 | 66 ft | 19 kts | 249° |
| 2026-04-28 05:06 | 45.64604 | 12.18479 | 67 ft | 18 kts | 250° |
| 2026-04-28 05:07 | 45.64561 | 12.18314 | 66 ft | 17 kts | 249° |
| 2026-04-28 05:07 | 45.64518 | 12.18155 | 68 ft | 17 kts | 250° |
| 2026-04-28 05:07 | 45.64495 | 12.18028 | 69 ft | 12 kts | 271° |
| 2026-04-28 05:07 | 45.64500 | 12.17931 | 72 ft | 7 kts | 223° |
| 2026-04-28 05:08 | 45.64471 | 12.17944 | 72 ft | 5 kts | 129° |
| 2026-04-28 05:08 | 45.64473 | 12.17990 | 70 ft | 5 kts | 70° |
| 2026-04-28 05:08 | 45.64485 | 12.18033 | 67 ft | 5 kts | 69° |
| 2026-04-28 05:08 | 45.64507 | 12.18114 | 70 ft | 30 kts | 69° |
| 2026-04-28 05:09 | 45.64692 | 12.18805 | 67 ft | 116 kts | 69° |
| 2026-04-28 05:09 | 45.65064 | 12.20191 | 226 ft | 172 kts | 67° |
| 2026-04-28 05:09 | 45.65537 | 12.21876 | 929 ft | 190 kts | 68° |
| 2026-04-28 05:09 | 45.65925 | 12.23642 | 2127 ft | 183 kts | 86° |
| 2026-04-28 05:10 | 45.65525 | 12.25310 | 3260 ft | 181 kts | 132° |
| 2026-04-28 05:10 | 45.64525 | 12.26489 | 4007 ft | 202 kts | 150° |
| 2026-04-28 05:10 | 45.63137 | 12.26923 | 4720 ft | 211 kts | 187° |
| 2026-04-28 05:10 | 45.61798 | 12.26086 | 5500 ft | 215 kts | 224° |
| 2026-04-28 05:11 | 45.61086 | 12.24235 | 6328 ft | 217 kts | 264° |
| 2026-04-28 05:11 | 45.61265 | 12.22053 | 6957 ft | 231 kts | 284° |
| 2026-04-28 05:11 | 45.61677 | 12.19782 | 7731 ft | 239 kts | 284° |
| 2026-04-28 05:11 | 45.62104 | 12.17472 | 8650 ft | 240 kts | 284° |
| 2026-04-28 05:12 | 45.62526 | 12.15186 | 9370 ft | 243 kts | 284° |
| 2026-04-28 05:12 | 45.62851 | 12.12804 | 10022 ft | 247 kts | 266° |
| 2026-04-28 05:12 | 45.62392 | 12.10399 | 10455 ft | 262 kts | 246° |
| 2026-04-28 05:12 | 45.61576 | 12.07920 | 10611 ft | 287 kts | 245° |
| 2026-04-28 05:13 | 45.60665 | 12.05253 | 10819 ft | 310 kts | 244° |
| 2026-04-28 05:13 | 45.59686 | 12.02375 | 10992 ft | 333 kts | 245° |
| 2026-04-28 05:13 | 45.58673 | 11.99361 | 11379 ft | 346 kts | 245° |
| 2026-04-28 05:13 | 45.57632 | 11.96235 | 12044 ft | 350 kts | 245° |
| 2026-04-28 05:14 | 45.56587 | 11.93083 | 12794 ft | 352 kts | 245° |
| 2026-04-28 05:14 | 45.55539 | 11.89908 | 13518 ft | 355 kts | 246° |
| 2026-04-28 05:14 | 45.54480 | 11.86699 | 14173 ft | 359 kts | 246° |
| 2026-04-28 05:14 | 45.53411 | 11.83463 | 14815 ft | 361 kts | 246° |
| 2026-04-28 05:15 | 45.52354 | 11.80269 | 15479 ft | 363 kts | 246° |
| 2026-04-28 05:15 | 45.50985 | 11.77189 | 16093 ft | 369 kts | 228° |
| 2026-04-28 05:15 | 45.48970 | 11.74884 | 16736 ft | 375 kts | 212° |
| 2026-04-28 05:15 | 45.46490 | 11.73637 | 17314 ft | 385 kts | 189° |
| 2026-04-28 05:16 | 45.43788 | 11.73720 | 17925 ft | 393 kts | 171° |
| 2026-04-28 05:16 | 45.41099 | 11.74558 | 18500 ft | 397 kts | 169° |
| 2026-04-28 05:16 | 45.38387 | 11.75463 | 18960 ft | 402 kts | 169° |
| 2026-04-28 05:17 | 45.32919 | 11.77240 | 19955 ft | 408 kts | 169° |
| 2026-04-28 05:17 | 45.30130 | 11.78124 | 20439 ft | 412 kts | 169° |
| 2026-04-28 05:17 | 45.27311 | 11.79007 | 20915 ft | 416 kts | 169° |
| 2026-04-28 05:17 | 45.24464 | 11.79894 | 21379 ft | 419 kts | 169° |
| 2026-04-28 05:18 | 45.21599 | 11.80783 | 21853 ft | 423 kts | 169° |
| 2026-04-28 05:18 | 45.18713 | 11.81677 | 22310 ft | 426 kts | 169° |
| 2026-04-28 05:18 | 45.15802 | 11.82578 | 22761 ft | 430 kts | 169° |
| 2026-04-28 05:18 | 45.12903 | 11.83476 | 23192 ft | 433 kts | 169° |
| 2026-04-28 05:19 | 45.09943 | 11.84392 | 23620 ft | 437 kts | 169° |
| 2026-04-28 05:19 | 45.06958 | 11.85314 | 23998 ft | 440 kts | 169° |
| 2026-04-28 05:19 | 45.03958 | 11.86241 | 24397 ft | 441 kts | 169° |
| 2026-04-28 05:19 | 45.00943 | 11.87171 | 24797 ft | 443 kts | 169° |
| 2026-04-28 05:20 | 44.97961 | 11.88023 | 25171 ft | 443 kts | 176° |
| 2026-04-28 05:20 | 44.94903 | 11.87863 | 25494 ft | 440 kts | 195° |
| 2026-04-28 05:20 | 44.92055 | 11.86377 | 25885 ft | 434 kts | 212° |
| 2026-04-28 05:20 | 44.89607 | 11.83933 | 26272 ft | 429 kts | 227° |
| 2026-04-28 05:21 | 44.87707 | 11.80715 | 26620 ft | 427 kts | 237° |
| 2026-04-28 05:21 | 44.85993 | 11.77284 | 26957 ft | 429 kts | 238° |
| 2026-04-28 05:21 | 44.84298 | 11.73804 | 27274 ft | 431 kts | 238° |
| 2026-04-28 05:21 | 44.82635 | 11.70378 | 27619 ft | 433 kts | 238° |
| 2026-04-28 05:22 | 44.80927 | 11.66883 | 27963 ft | 434 kts | 238° |
| 2026-04-28 05:22 | 44.79195 | 11.63372 | 28284 ft | 436 kts | 238° |
| 2026-04-28 05:22 | 44.77445 | 11.59849 | 28590 ft | 438 kts | 237° |
| 2026-04-28 05:22 | 44.75686 | 11.56329 | 28882 ft | 440 kts | 237° |
| 2026-04-28 05:23 | 44.73911 | 11.52791 | 29182 ft | 442 kts | 237° |
| 2026-04-28 05:23 | 44.72150 | 11.49291 | 29516 ft | 443 kts | 237° |
| 2026-04-28 05:23 | 44.70369 | 11.45759 | 29963 ft | 441 kts | 237° |
| 2026-04-28 05:23 | 44.68597 | 11.42249 | 30391 ft | 438 kts | 237° |
| 2026-04-28 05:24 | 44.66833 | 11.38759 | 30722 ft | 437 kts | 237° |
| 2026-04-28 05:24 | 44.65068 | 11.35269 | 30995 ft | 438 kts | 237° |
| 2026-04-28 05:24 | 44.63300 | 11.31777 | 31268 ft | 439 kts | 237° |
| 2026-04-28 05:24 | 44.61530 | 11.28283 | 31575 ft | 438 kts | 237° |
| 2026-04-28 05:25 | 44.59787 | 11.24848 | 31911 ft | 437 kts | 237° |
| 2026-04-28 05:25 | 44.58021 | 11.21373 | 32201 ft | 437 kts | 237° |
| 2026-04-28 05:25 | 44.56254 | 11.17898 | 32472 ft | 437 kts | 237° |
| 2026-04-28 05:25 | 44.54485 | 11.14423 | 32788 ft | 436 kts | 237° |
| 2026-04-28 05:26 | 44.52728 | 11.10979 | 33077 ft | 436 kts | 237° |
| 2026-04-28 05:26 | 44.50950 | 11.07492 | 33060 ft | 441 kts | 237° |
| 2026-04-28 05:26 | 44.47395 | 11.00539 | 33086 ft | 439 kts | 237° |
| 2026-04-28 05:27 | 44.43858 | 10.93644 | 33129 ft | 433 kts | 237° |
| 2026-04-28 05:27 | 44.40336 | 10.86788 | 33167 ft | 434 kts | 237° |
| 2026-04-28 05:28 | 44.36799 | 10.79921 | 33179 ft | 435 kts | 237° |
| 2026-04-28 05:28 | 44.33268 | 10.73079 | 33186 ft | 435 kts | 237° |
| 2026-04-28 05:29 | 44.29714 | 10.66212 | 33179 ft | 436 kts | 236° |
| 2026-04-28 05:29 | 44.26179 | 10.59398 | 33183 ft | 436 kts | 236° |
| 2026-04-28 05:30 | 44.22608 | 10.52528 | 33168 ft | 437 kts | 236° |
| 2026-04-28 05:30 | 44.19032 | 10.45667 | 33163 ft | 436 kts | 236° |
| 2026-04-28 05:31 | 44.15472 | 10.38852 | 33132 ft | 436 kts | 236° |
| 2026-04-28 05:31 | 44.11900 | 10.32031 | 33113 ft | 435 kts | 236° |
| 2026-04-28 05:32 | 44.08336 | 10.25240 | 33084 ft | 435 kts | 236° |
| 2026-04-28 05:32 | 44.04763 | 10.18449 | 33074 ft | 434 kts | 236° |
| 2026-04-28 05:33 | 44.01214 | 10.11717 | 33075 ft | 434 kts | 236° |
| 2026-04-28 05:33 | 43.97643 | 10.04960 | 33073 ft | 433 kts | 236° |
| 2026-04-28 05:34 | 43.94072 | 9.98221 | 33077 ft | 432 kts | 236° |
| 2026-04-28 05:34 | 43.90508 | 9.91508 | 33077 ft | 431 kts | 236° |
| 2026-04-28 05:35 | 43.86967 | 9.84853 | 33074 ft | 431 kts | 236° |
| 2026-04-28 05:35 | 43.83402 | 9.78169 | 33076 ft | 430 kts | 236° |
| 2026-04-28 05:36 | 43.79829 | 9.71487 | 33069 ft | 431 kts | 235° |
| 2026-04-28 05:36 | 43.76285 | 9.64872 | 33077 ft | 431 kts | 235° |
| 2026-04-28 05:37 | 43.72707 | 9.58209 | 33069 ft | 431 kts | 235° |
| 2026-04-28 05:37 | 43.69120 | 9.51546 | 33073 ft | 432 kts | 235° |
| 2026-04-28 05:38 | 43.65529 | 9.44889 | 33072 ft | 432 kts | 235° |
| 2026-04-28 05:38 | 43.62049 | 9.38452 | 33071 ft | 432 kts | 235° |
| 2026-04-28 05:39 | 43.58446 | 9.31802 | 33067 ft | 432 kts | 235° |
| 2026-04-28 05:39 | 43.54840 | 9.25163 | 33067 ft | 433 kts | 235° |
| 2026-04-28 05:40 | 43.51838 | 9.19647 | 33066 ft | 433 kts | 235° |
| 2026-04-28 05:40 | 43.48226 | 9.13022 | 33069 ft | 433 kts | 235° |
| 2026-04-28 05:41 | 43.44021 | 9.05328 | 33066 ft | 433 kts | 234° |
| 2026-04-28 05:41 | 43.40989 | 8.99792 | 33067 ft | 432 kts | 234° |
| 2026-04-28 05:42 | 43.37381 | 8.93175 | 33067 ft | 432 kts | 235° |
| 2026-04-28 05:42 | 43.33298 | 8.85409 | 33068 ft | 431 kts | 236° |
| 2026-04-28 05:43 | 43.30363 | 8.79801 | 33067 ft | 431 kts | 236° |
| 2026-04-28 05:43 | 43.26881 | 8.73178 | 33067 ft | 431 kts | 236° |
| 2026-04-28 05:44 | 43.23362 | 8.66519 | 33065 ft | 431 kts | 236° |
| 2026-04-28 05:44 | 43.19843 | 8.59882 | 33065 ft | 430 kts | 236° |
| 2026-04-28 05:45 | 43.16320 | 8.53253 | 33066 ft | 430 kts | 236° |
| 2026-04-28 05:45 | 43.12795 | 8.46634 | 33065 ft | 430 kts | 236° |
| 2026-04-28 05:46 | 43.09629 | 8.40701 | 33065 ft | 430 kts | 236° |
| 2026-04-28 05:46 | 43.06101 | 8.34105 | 33066 ft | 430 kts | 235° |
| 2026-04-28 05:47 | 43.02565 | 8.27507 | 33064 ft | 429 kts | 235° |
| 2026-04-28 05:47 | 42.99048 | 8.20960 | 33065 ft | 429 kts | 235° |
| 2026-04-28 05:48 | 42.95499 | 8.14369 | 33062 ft | 429 kts | 235° |
| 2026-04-28 05:48 | 42.91949 | 8.07788 | 33061 ft | 429 kts | 235° |
| 2026-04-28 05:49 | 42.88414 | 8.01251 | 33057 ft | 429 kts | 235° |
| 2026-04-28 05:49 | 42.84857 | 7.94689 | 33060 ft | 430 kts | 235° |
| 2026-04-28 05:50 | 42.81302 | 7.88144 | 33059 ft | 430 kts | 235° |
| 2026-04-28 05:50 | 42.77743 | 7.81604 | 33061 ft | 430 kts | 235° |
| 2026-04-28 05:51 | 42.74201 | 7.75112 | 33069 ft | 429 kts | 235° |
| 2026-04-28 05:51 | 42.70625 | 7.68572 | 33059 ft | 429 kts | 235° |
| 2026-04-28 05:52 | 42.67055 | 7.62057 | 33060 ft | 429 kts | 235° |
| 2026-04-28 05:52 | 42.63504 | 7.55589 | 33060 ft | 429 kts | 235° |
| 2026-04-28 05:53 | 42.59928 | 7.49092 | 33057 ft | 428 kts | 235° |
| 2026-04-28 05:53 | 42.56372 | 7.42644 | 33064 ft | 428 kts | 235° |
| 2026-04-28 05:54 | 42.52786 | 7.36156 | 33059 ft | 428 kts | 235° |
| 2026-04-28 05:54 | 42.49214 | 7.29707 | 33059 ft | 427 kts | 235° |
| 2026-04-28 05:55 | 42.45649 | 7.23284 | 33059 ft | 427 kts | 235° |
| 2026-04-28 05:55 | 42.42077 | 7.16862 | 33064 ft | 427 kts | 235° |
| 2026-04-28 05:56 | 42.38500 | 7.10446 | 33061 ft | 427 kts | 235° |
| 2026-04-28 05:56 | 42.34930 | 7.04055 | 33062 ft | 427 kts | 234° |
| 2026-04-28 05:57 | 42.31351 | 6.97661 | 33055 ft | 427 kts | 234° |
| 2026-04-28 05:57 | 42.27740 | 6.91224 | 33060 ft | 427 kts | 234° |
| 2026-04-28 05:58 | 42.24173 | 6.84879 | 33054 ft | 427 kts | 234° |
| 2026-04-28 05:58 | 42.20556 | 6.78457 | 33057 ft | 427 kts | 234° |
| 2026-04-28 05:59 | 42.16973 | 6.72108 | 33051 ft | 427 kts | 234° |
| 2026-04-28 05:59 | 42.13042 | 6.66120 | 33062 ft | 429 kts | 226° |
| 2026-04-28 06:00 | 42.08718 | 6.60526 | 33054 ft | 429 kts | 226° |
| 2026-04-28 06:00 | 42.04407 | 6.54970 | 33053 ft | 429 kts | 226° |
| 2026-04-28 06:01 | 42.00112 | 6.49402 | 33056 ft | 429 kts | 226° |
| 2026-04-28 06:01 | 41.95832 | 6.43839 | 33057 ft | 430 kts | 226° |
| 2026-04-28 06:02 | 41.91517 | 6.38235 | 33054 ft | 430 kts | 226° |
| 2026-04-28 06:02 | 41.87230 | 6.32678 | 33053 ft | 430 kts | 226° |
| 2026-04-28 06:03 | 41.82940 | 6.27130 | 33053 ft | 430 kts | 226° |
| 2026-04-28 06:03 | 41.78615 | 6.21547 | 33055 ft | 430 kts | 226° |
| 2026-04-28 06:04 | 41.74332 | 6.16031 | 33050 ft | 430 kts | 226° |
| 2026-04-28 06:04 | 41.70003 | 6.10465 | 33048 ft | 430 kts | 226° |
| 2026-04-28 06:05 | 41.65685 | 6.04924 | 33052 ft | 430 kts | 226° |
| 2026-04-28 06:05 | 41.61375 | 5.99404 | 33051 ft | 430 kts | 225° |
| 2026-04-28 06:06 | 41.57046 | 5.93871 | 33049 ft | 430 kts | 225° |
| 2026-04-28 06:06 | 41.52731 | 5.88366 | 33050 ft | 430 kts | 225° |
| 2026-04-28 06:07 | 41.48423 | 5.82881 | 33045 ft | 430 kts | 225° |
| 2026-04-28 06:07 | 41.44098 | 5.77385 | 33045 ft | 430 kts | 225° |
| 2026-04-28 06:08 | 41.39744 | 5.71863 | 33047 ft | 430 kts | 225° |
| 2026-04-28 06:08 | 41.35419 | 5.66388 | 33045 ft | 430 kts | 225° |
| 2026-04-28 06:09 | 41.31089 | 5.60918 | 33044 ft | 430 kts | 225° |
| 2026-04-28 06:09 | 41.26745 | 5.55440 | 33042 ft | 430 kts | 225° |
| 2026-04-28 06:10 | 41.22411 | 5.49986 | 33042 ft | 431 kts | 225° |
| 2026-04-28 06:10 | 41.18042 | 5.44498 | 33043 ft | 431 kts | 225° |
| 2026-04-28 06:11 | 41.13696 | 5.39049 | 33041 ft | 431 kts | 225° |
| 2026-04-28 06:11 | 41.09344 | 5.33604 | 33045 ft | 431 kts | 225° |
| 2026-04-28 06:12 | 41.04958 | 5.28126 | 33041 ft | 431 kts | 225° |
| 2026-04-28 06:12 | 41.00590 | 5.22681 | 33040 ft | 432 kts | 225° |
| 2026-04-28 06:13 | 40.96217 | 5.17240 | 33044 ft | 432 kts | 225° |
| 2026-04-28 06:13 | 40.91845 | 5.11811 | 33036 ft | 432 kts | 225° |
| 2026-04-28 06:14 | 40.87452 | 5.06367 | 33036 ft | 432 kts | 225° |
| 2026-04-28 06:14 | 40.83063 | 5.00937 | 33042 ft | 433 kts | 225° |
| 2026-04-28 06:15 | 40.78672 | 4.95515 | 33037 ft | 433 kts | 225° |
| 2026-04-28 06:15 | 40.74274 | 4.90095 | 33032 ft | 433 kts | 225° |
| 2026-04-28 06:16 | 40.69862 | 4.84667 | 33036 ft | 433 kts | 225° |
| 2026-04-28 06:16 | 40.65452 | 4.79252 | 33040 ft | 433 kts | 225° |
| 2026-04-28 06:17 | 40.61053 | 4.73859 | 33033 ft | 433 kts | 225° |
| 2026-04-28 06:18 | 40.54764 | 4.65393 | 33030 ft | 430 kts | 237° |
| 2026-04-28 06:18 | 40.51904 | 4.58558 | 33034 ft | 427 kts | 245° |
| 2026-04-28 06:19 | 40.49229 | 4.51598 | 33034 ft | 427 kts | 244° |
| 2026-04-28 06:19 | 40.46509 | 4.44610 | 33030 ft | 428 kts | 244° |
| 2026-04-28 06:20 | 40.43781 | 4.37679 | 33026 ft | 428 kts | 244° |
| 2026-04-28 06:20 | 40.41047 | 4.30769 | 33027 ft | 428 kts | 244° |
| 2026-04-28 06:21 | 40.38303 | 4.23851 | 33027 ft | 428 kts | 244° |
| 2026-04-28 06:21 | 40.35548 | 4.16922 | 33028 ft | 427 kts | 244° |
| 2026-04-28 06:22 | 40.32786 | 4.09988 | 33372 ft | 429 kts | 244° |
| 2026-04-28 06:22 | 40.31410 | 4.06538 | 33766 ft | 426 kts | 244° |
| 2026-04-28 06:22 | 40.30052 | 4.03141 | 34146 ft | 423 kts | 244° |
| 2026-04-28 06:22 | 40.28684 | 3.99721 | 34457 ft | 421 kts | 244° |
| 2026-04-28 06:23 | 40.27323 | 3.96320 | 34724 ft | 420 kts | 243° |
| 2026-04-28 06:23 | 40.25963 | 3.92927 | 34958 ft | 420 kts | 243° |
| 2026-04-28 06:23 | 40.24616 | 3.89569 | 35007 ft | 423 kts | 243° |
| 2026-04-28 06:24 | 40.21863 | 3.82719 | 35016 ft | 423 kts | 243° |
| 2026-04-28 06:24 | 40.19136 | 3.75947 | 35014 ft | 417 kts | 243° |
| 2026-04-28 06:25 | 40.16446 | 3.69293 | 35022 ft | 416 kts | 243° |
| 2026-04-28 06:25 | 40.13717 | 3.62625 | 35022 ft | 415 kts | 243° |
| 2026-04-28 06:26 | 40.11449 | 3.57095 | 35024 ft | 415 kts | 243° |
| 2026-04-28 06:26 | 40.08272 | 3.49354 | 35023 ft | 415 kts | 243° |
| 2026-04-28 06:27 | 40.05552 | 3.42714 | 35025 ft | 416 kts | 243° |
| 2026-04-28 06:27 | 40.03271 | 3.37150 | 35021 ft | 417 kts | 243° |
| 2026-04-28 06:28 | 40.00518 | 3.30451 | 35027 ft | 418 kts | 242° |
| 2026-04-28 06:28 | 39.97774 | 3.23788 | 35019 ft | 419 kts | 242° |
| 2026-04-28 06:29 | 39.95014 | 3.17097 | 35020 ft | 420 kts | 242° |
| 2026-04-28 06:29 | 39.92199 | 3.10447 | 35016 ft | 421 kts | 238° |
| 2026-04-28 06:30 | 39.88912 | 3.04090 | 35018 ft | 422 kts | 236° |
| 2026-04-28 06:30 | 39.85598 | 2.97834 | 35015 ft | 422 kts | 236° |
| 2026-04-28 06:31 | 39.82271 | 2.91509 | 35017 ft | 421 kts | 236° |
| 2026-04-28 06:31 | 39.78982 | 2.85232 | 35015 ft | 421 kts | 236° |
| 2026-04-28 06:32 | 39.75694 | 2.78961 | 35017 ft | 421 kts | 236° |
| 2026-04-28 06:32 | 39.72399 | 2.72690 | 35020 ft | 420 kts | 236° |
| 2026-04-28 06:33 | 39.69102 | 2.66424 | 35017 ft | 419 kts | 236° |
| 2026-04-28 06:33 | 39.65813 | 2.60193 | 35018 ft | 419 kts | 236° |
| 2026-04-28 06:34 | 39.62518 | 2.53965 | 35018 ft | 418 kts | 236° |
| 2026-04-28 06:34 | 39.59221 | 2.47741 | 35034 ft | 417 kts | 236° |
| 2026-04-28 06:35 | 39.55934 | 2.41550 | 35023 ft | 417 kts | 236° |
| 2026-04-28 06:35 | 39.52838 | 2.35230 | 35012 ft | 416 kts | 240° |
| 2026-04-28 06:36 | 39.49959 | 2.28744 | 35010 ft | 416 kts | 240° |
| 2026-04-28 06:36 | 39.47062 | 2.22208 | 35005 ft | 416 kts | 240° |
| 2026-04-28 06:37 | 39.44160 | 2.15734 | 35014 ft | 417 kts | 240° |
| 2026-04-28 06:37 | 39.41241 | 2.09268 | 35015 ft | 417 kts | 239° |
| 2026-04-28 06:38 | 39.38315 | 2.02807 | 35009 ft | 418 kts | 239° |
| 2026-04-28 06:38 | 39.35368 | 1.96313 | 35006 ft | 418 kts | 239° |
| 2026-04-28 06:39 | 39.32426 | 1.89844 | 35008 ft | 419 kts | 239° |
| 2026-04-28 06:39 | 39.29472 | 1.83358 | 35010 ft | 419 kts | 239° |
| 2026-04-28 06:40 | 39.26505 | 1.76860 | 35004 ft | 420 kts | 239° |
| 2026-04-28 06:40 | 39.23533 | 1.70362 | 35001 ft | 420 kts | 239° |
| 2026-04-28 06:41 | 39.20552 | 1.63858 | 35002 ft | 421 kts | 239° |
| 2026-04-28 06:41 | 39.17571 | 1.57367 | 35004 ft | 421 kts | 239° |
| 2026-04-28 06:42 | 39.14603 | 1.50915 | 35002 ft | 421 kts | 239° |
| 2026-04-28 06:42 | 39.11627 | 1.44376 | 35007 ft | 421 kts | 242° |
| 2026-04-28 06:43 | 39.09401 | 1.37413 | 35007 ft | 421 kts | 248° |
| 2026-04-28 06:43 | 39.07313 | 1.30367 | 35013 ft | 421 kts | 248° |
| 2026-04-28 06:44 | 39.05194 | 1.23332 | 35010 ft | 421 kts | 248° |
| 2026-04-28 06:44 | 39.03053 | 1.16310 | 35012 ft | 422 kts | 248° |
| 2026-04-28 06:45 | 39.00907 | 1.09298 | 35008 ft | 422 kts | 248° |
| 2026-04-28 06:45 | 38.98757 | 1.02291 | 35006 ft | 422 kts | 247° |
| 2026-04-28 06:46 | 38.96591 | 0.95249 | 35006 ft | 422 kts | 247° |
| 2026-04-28 06:46 | 38.94432 | 0.88253 | 35005 ft | 423 kts | 247° |
| 2026-04-28 06:47 | 38.92269 | 0.81262 | 35002 ft | 423 kts | 247° |
| 2026-04-28 06:47 | 38.90091 | 0.74232 | 35003 ft | 423 kts | 247° |
| 2026-04-28 06:48 | 38.87905 | 0.67197 | 35004 ft | 423 kts | 247° |
| 2026-04-28 06:48 | 38.85711 | 0.60166 | 35002 ft | 424 kts | 247° |
| 2026-04-28 06:49 | 38.83526 | 0.53176 | 35003 ft | 424 kts | 247° |
| 2026-04-28 06:49 | 38.81071 | 0.46302 | 34993 ft | 423 kts | 237° |
| 2026-04-28 06:50 | 38.77820 | 0.40020 | 35002 ft | 423 kts | 235° |
| 2026-04-28 06:50 | 38.74522 | 0.33779 | 35004 ft | 423 kts | 235° |
| 2026-04-28 06:51 | 38.71259 | 0.27549 | 35000 ft | 423 kts | 235° |
| 2026-04-28 06:51 | 38.67991 | 0.21271 | 35001 ft | 423 kts | 235° |
| 2026-04-28 06:52 | 38.64719 | 0.14985 | 35001 ft | 423 kts | 235° |
| 2026-04-28 06:52 | 38.61470 | 0.08753 | 34999 ft | 424 kts | 235° |
| 2026-04-28 06:53 | 38.58185 | 0.02466 | 34996 ft | 424 kts | 235° |
| 2026-04-28 06:53 | 38.54916 | -0.03777 | 34999 ft | 424 kts | 235° |
| 2026-04-28 06:54 | 38.51628 | -0.10045 | 34995 ft | 424 kts | 235° |
| 2026-04-28 06:54 | 38.48337 | -0.16308 | 34994 ft | 424 kts | 235° |
| 2026-04-28 06:55 | 38.45060 | -0.22530 | 35000 ft | 424 kts | 235° |
| 2026-04-28 06:55 | 38.41763 | -0.28780 | 35004 ft | 424 kts | 235° |
| 2026-04-28 06:56 | 38.38484 | -0.34984 | 35010 ft | 424 kts | 235° |
| 2026-04-28 06:56 | 38.35194 | -0.41196 | 35018 ft | 424 kts | 235° |
| 2026-04-28 06:57 | 38.31874 | -0.47456 | 35017 ft | 424 kts | 235° |
| 2026-04-28 06:57 | 38.28580 | -0.53653 | 35024 ft | 424 kts | 235° |
| 2026-04-28 06:58 | 38.24897 | -0.59475 | 35024 ft | 423 kts | 224° |
| 2026-04-28 06:58 | 38.20624 | -0.64590 | 35022 ft | 423 kts | 223° |
| 2026-04-28 06:59 | 38.16299 | -0.69715 | 35016 ft | 423 kts | 223° |
| 2026-04-28 06:59 | 38.12019 | -0.74828 | 35017 ft | 424 kts | 223° |
| 2026-04-28 07:00 | 38.07739 | -0.79964 | 35013 ft | 424 kts | 223° |
| 2026-04-28 07:00 | 38.03446 | -0.85116 | 35025 ft | 424 kts | 223° |
| 2026-04-28 07:01 | 37.99154 | -0.90261 | 35025 ft | 424 kts | 223° |
| 2026-04-28 07:01 | 37.94868 | -0.95387 | 35025 ft | 424 kts | 223° |
| 2026-04-28 07:02 | 37.90561 | -1.00530 | 35027 ft | 424 kts | 223° |
| 2026-04-28 07:02 | 37.86276 | -1.05639 | 35026 ft | 424 kts | 223° |
| 2026-04-28 07:03 | 37.81985 | -1.10745 | 35024 ft | 424 kts | 223° |
| 2026-04-28 07:03 | 37.77695 | -1.15841 | 35018 ft | 424 kts | 223° |
| 2026-04-28 07:04 | 37.73401 | -1.20934 | 35021 ft | 424 kts | 223° |
| 2026-04-28 07:04 | 37.69110 | -1.26015 | 35014 ft | 424 kts | 223° |
| 2026-04-28 07:05 | 37.64809 | -1.31100 | 35025 ft | 424 kts | 223° |
| 2026-04-28 07:05 | 37.60487 | -1.36200 | 35026 ft | 424 kts | 223° |
| 2026-04-28 07:06 | 37.56189 | -1.41263 | 35025 ft | 425 kts | 223° |
| 2026-04-28 07:06 | 37.51870 | -1.46344 | 35018 ft | 426 kts | 223° |
| 2026-04-28 07:07 | 37.47538 | -1.51430 | 35012 ft | 427 kts | 223° |
| 2026-04-28 07:07 | 37.43192 | -1.56526 | 35026 ft | 427 kts | 223° |
| 2026-04-28 07:08 | 37.38810 | -1.61654 | 35019 ft | 428 kts | 223° |
| 2026-04-28 07:08 | 37.34472 | -1.66723 | 35010 ft | 429 kts | 223° |
| 2026-04-28 07:09 | 37.30817 | -1.70987 | 35015 ft | 429 kts | 223° |
| 2026-04-28 07:09 | 37.26458 | -1.76064 | 35013 ft | 429 kts | 223° |
| 2026-04-28 07:10 | 37.22080 | -1.81156 | 35007 ft | 429 kts | 223° |
| 2026-04-28 07:10 | 37.17700 | -1.86241 | 35006 ft | 429 kts | 223° |
| 2026-04-28 07:11 | 37.13316 | -1.91323 | 35000 ft | 429 kts | 223° |
| 2026-04-28 07:11 | 37.08939 | -1.96388 | 34997 ft | 429 kts | 223° |
| 2026-04-28 07:12 | 37.04552 | -2.01457 | 34995 ft | 429 kts | 223° |
| 2026-04-28 07:12 | 37.00153 | -2.06531 | 34978 ft | 430 kts | 223° |
| 2026-04-28 07:13 | 36.95754 | -2.11597 | 34966 ft | 430 kts | 223° |
| 2026-04-28 07:13 | 36.91359 | -2.16651 | 34951 ft | 431 kts | 223° |
| 2026-04-28 07:14 | 36.86948 | -2.21716 | 34946 ft | 431 kts | 223° |
| 2026-04-28 07:14 | 36.82483 | -2.26788 | 34939 ft | 432 kts | 221° |
| 2026-04-28 07:15 | 36.77824 | -2.31538 | 34942 ft | 433 kts | 218° |
| 2026-04-28 07:15 | 36.73102 | -2.36203 | 34941 ft | 434 kts | 218° |
| 2026-04-28 07:16 | 36.68381 | -2.40908 | 34944 ft | 435 kts | 219° |
| 2026-04-28 07:16 | 36.63672 | -2.45627 | 34947 ft | 436 kts | 219° |
| 2026-04-28 07:17 | 36.58929 | -2.50380 | 34948 ft | 437 kts | 219° |
| 2026-04-28 07:17 | 36.54190 | -2.55121 | 34946 ft | 438 kts | 219° |
| 2026-04-28 07:18 | 36.49422 | -2.59883 | 34946 ft | 439 kts | 219° |
| 2026-04-28 07:18 | 36.44648 | -2.64605 | 34949 ft | 440 kts | 218° |
| 2026-04-28 07:19 | 36.39791 | -2.69257 | 34943 ft | 442 kts | 218° |
| 2026-04-28 07:19 | 36.34929 | -2.73897 | 34945 ft | 442 kts | 218° |
| 2026-04-28 07:20 | 36.30041 | -2.78575 | 34941 ft | 443 kts | 218° |
| 2026-04-28 07:20 | 36.25158 | -2.83249 | 34944 ft | 444 kts | 218° |
| 2026-04-28 07:21 | 36.20269 | -2.87919 | 34938 ft | 444 kts | 218° |
| 2026-04-28 07:21 | 36.15409 | -2.92611 | 34939 ft | 444 kts | 218° |
| 2026-04-28 07:22 | 36.08106 | -2.99699 | 34944 ft | 445 kts | 218° |
| 2026-04-28 07:22 | 36.03249 | -3.04397 | 34947 ft | 445 kts | 218° |
| 2026-04-28 07:23 | 35.98368 | -3.09106 | 34949 ft | 446 kts | 218° |
| 2026-04-28 07:23 | 35.93472 | -3.13822 | 34952 ft | 446 kts | 218° |
| 2026-04-28 07:24 | 35.88572 | -3.18535 | 34958 ft | 446 kts | 218° |
| 2026-04-28 07:24 | 35.83670 | -3.23243 | 34955 ft | 447 kts | 218° |
| 2026-04-28 07:25 | 35.78767 | -3.27892 | 34955 ft | 447 kts | 217° |
| 2026-04-28 07:25 | 35.73809 | -3.32540 | 34959 ft | 448 kts | 217° |
| 2026-04-28 07:26 | 35.68827 | -3.37209 | 34959 ft | 449 kts | 217° |
| 2026-04-28 07:26 | 35.63861 | -3.41864 | 34956 ft | 450 kts | 217° |
| 2026-04-28 07:27 | 35.58885 | -3.46525 | 34960 ft | 450 kts | 217° |
| 2026-04-28 07:27 | 35.53905 | -3.51181 | 34957 ft | 451 kts | 217° |
| 2026-04-28 07:28 | 35.48918 | -3.55837 | 34959 ft | 452 kts | 217° |
| 2026-04-28 07:28 | 35.43892 | -3.60521 | 34955 ft | 452 kts | 217° |
| 2026-04-28 07:29 | 35.38909 | -3.65157 | 34962 ft | 452 kts | 217° |
| 2026-04-28 07:29 | 35.33886 | -3.69824 | 34959 ft | 454 kts | 217° |
| 2026-04-28 07:30 | 35.28848 | -3.74498 | 34955 ft | 453 kts | 217° |
| 2026-04-28 07:30 | 35.23828 | -3.79148 | 34965 ft | 451 kts | 217° |
| 2026-04-28 07:31 | 35.18837 | -3.83764 | 34965 ft | 450 kts | 217° |
| 2026-04-28 07:31 | 35.13913 | -3.88407 | 34966 ft | 448 kts | 218° |
| 2026-04-28 07:32 | 35.08993 | -3.93112 | 34966 ft | 448 kts | 218° |
| 2026-04-28 07:32 | 35.04080 | -3.97798 | 34965 ft | 447 kts | 218° |
| 2026-04-28 07:33 | 34.99163 | -4.02469 | 34964 ft | 447 kts | 218° |
| 2026-04-28 07:33 | 34.94281 | -4.07095 | 34950 ft | 447 kts | 218° |
| 2026-04-28 07:34 | 34.89360 | -4.11750 | 34945 ft | 447 kts | 218° |
| 2026-04-28 07:34 | 34.84444 | -4.16393 | 34945 ft | 447 kts | 218° |
| 2026-04-28 07:35 | 34.79517 | -4.21039 | 34941 ft | 447 kts | 218° |
| 2026-04-28 07:35 | 34.74626 | -4.25645 | 34943 ft | 447 kts | 218° |
| 2026-04-28 07:36 | 34.69697 | -4.30279 | 34947 ft | 447 kts | 218° |
| 2026-04-28 07:36 | 34.64770 | -4.34904 | 34938 ft | 447 kts | 218° |
| 2026-04-28 07:37 | 34.59842 | -4.39524 | 34933 ft | 447 kts | 218° |
| 2026-04-28 07:37 | 34.54965 | -4.44089 | 34932 ft | 446 kts | 218° |
| 2026-04-28 07:38 | 34.50043 | -4.48688 | 34926 ft | 446 kts | 218° |
| 2026-04-28 07:38 | 34.45117 | -4.53285 | 34924 ft | 445 kts | 218° |
| 2026-04-28 07:39 | 34.40229 | -4.57840 | 34919 ft | 444 kts | 218° |
| 2026-04-28 07:39 | 34.35324 | -4.62381 | 34923 ft | 443 kts | 218° |
| 2026-04-28 07:40 | 34.30422 | -4.66887 | 34921 ft | 442 kts | 218° |
| 2026-04-28 07:40 | 34.25537 | -4.71373 | 34920 ft | 441 kts | 218° |
| 2026-04-28 07:41 | 34.20645 | -4.75863 | 34928 ft | 441 kts | 218° |
| 2026-04-28 07:41 | 34.15758 | -4.80344 | 34938 ft | 440 kts | 218° |
| 2026-04-28 07:42 | 34.10892 | -4.84800 | 34944 ft | 439 kts | 218° |
| 2026-04-28 07:42 | 34.06050 | -4.89226 | 34959 ft | 439 kts | 218° |
| 2026-04-28 07:43 | 34.01170 | -4.93681 | 34968 ft | 438 kts | 218° |
| 2026-04-28 07:43 | 33.96321 | -4.98102 | 34966 ft | 437 kts | 218° |
| 2026-04-28 07:44 | 33.91643 | -5.02715 | 34955 ft | 435 kts | 228° |
| 2026-04-28 07:44 | 33.87662 | -5.08229 | 34964 ft | 434 kts | 231° |
| 2026-04-28 07:45 | 33.83784 | -5.13736 | 34963 ft | 433 kts | 231° |
| 2026-04-28 07:45 | 33.79853 | -5.19253 | 34962 ft | 433 kts | 230° |
| 2026-04-28 07:46 | 33.75906 | -5.24736 | 34952 ft | 433 kts | 230° |
| 2026-04-28 07:46 | 33.71971 | -5.30183 | 34954 ft | 433 kts | 230° |
| 2026-04-28 07:47 | 33.68018 | -5.35645 | 34956 ft | 433 kts | 230° |
| 2026-04-28 07:47 | 33.64077 | -5.41084 | 34962 ft | 433 kts | 230° |
| 2026-04-28 07:48 | 33.60109 | -5.46552 | 34961 ft | 433 kts | 230° |
| 2026-04-28 07:48 | 33.56153 | -5.51996 | 34961 ft | 434 kts | 230° |
| 2026-04-28 07:49 | 33.52185 | -5.57448 | 34962 ft | 433 kts | 230° |
| 2026-04-28 07:49 | 33.48207 | -5.62907 | 34961 ft | 433 kts | 230° |
| 2026-04-28 07:50 | 33.44253 | -5.68322 | 34956 ft | 432 kts | 230° |
| 2026-04-28 07:50 | 33.40294 | -5.73739 | 34958 ft | 430 kts | 230° |
| 2026-04-28 07:51 | 33.36383 | -5.79083 | 34953 ft | 429 kts | 230° |
| 2026-04-28 07:51 | 33.32461 | -5.84431 | 34956 ft | 427 kts | 230° |
| 2026-04-28 07:52 | 33.28535 | -5.89748 | 34947 ft | 424 kts | 230° |
| 2026-04-28 07:52 | 33.24635 | -5.95016 | 34948 ft | 422 kts | 230° |
| 2026-04-28 07:53 | 33.20762 | -6.00245 | 34945 ft | 420 kts | 230° |
| 2026-04-28 07:53 | 33.16897 | -6.05457 | 34946 ft | 419 kts | 230° |
| 2026-04-28 07:54 | 33.13018 | -6.10681 | 34940 ft | 419 kts | 230° |
| 2026-04-28 07:54 | 33.09169 | -6.15858 | 34941 ft | 419 kts | 230° |
| 2026-04-28 07:55 | 33.05300 | -6.21055 | 34942 ft | 419 kts | 230° |
| 2026-04-28 07:55 | 33.01423 | -6.26254 | 34951 ft | 420 kts | 230° |
| 2026-04-28 07:56 | 32.98183 | -6.30595 | 34940 ft | 420 kts | 230° |
| 2026-04-28 07:56 | 32.94305 | -6.35784 | 34943 ft | 420 kts | 229° |
| 2026-04-28 07:57 | 32.90416 | -6.40982 | 34936 ft | 421 kts | 229° |
| 2026-04-28 07:57 | 32.86511 | -6.46217 | 34936 ft | 421 kts | 229° |
| 2026-04-28 07:58 | 32.82640 | -6.51405 | 34944 ft | 422 kts | 229° |
| 2026-04-28 07:58 | 32.78732 | -6.56634 | 34944 ft | 422 kts | 229° |
| 2026-04-28 07:59 | 32.74817 | -6.61865 | 34946 ft | 420 kts | 229° |
| 2026-04-28 07:59 | 32.71039 | -6.66903 | 34946 ft | 405 kts | 229° |
| 2026-04-28 08:00 | 32.67290 | -6.71897 | 34845 ft | 405 kts | 229° |
| 2026-04-28 08:00 | 32.65422 | -6.74385 | 34565 ft | 402 kts | 229° |
| 2026-04-28 08:00 | 32.63592 | -6.76818 | 34189 ft | 399 kts | 229° |
| 2026-04-28 08:01 | 32.61746 | -6.79272 | 33803 ft | 396 kts | 229° |
| 2026-04-28 08:01 | 32.59919 | -6.81698 | 33392 ft | 393 kts | 229° |
| 2026-04-28 08:01 | 32.58104 | -6.84108 | 33002 ft | 390 kts | 229° |
| 2026-04-28 08:01 | 32.56301 | -6.86498 | 32627 ft | 387 kts | 228° |
| 2026-04-28 08:02 | 32.54501 | -6.88884 | 32258 ft | 384 kts | 228° |
| 2026-04-28 08:02 | 32.52729 | -6.91232 | 31894 ft | 381 kts | 228° |
| 2026-04-28 08:02 | 32.50995 | -6.93528 | 31534 ft | 378 kts | 228° |
| 2026-04-28 08:02 | 32.49338 | -6.95721 | 31201 ft | 376 kts | 228° |
| 2026-04-28 08:03 | 32.47592 | -6.98029 | 30827 ft | 373 kts | 228° |
| 2026-04-28 08:03 | 32.45864 | -7.00313 | 30492 ft | 371 kts | 228° |
| 2026-04-28 08:03 | 32.44145 | -7.02584 | 30140 ft | 369 kts | 228° |
| 2026-04-28 08:03 | 32.42432 | -7.04845 | 29743 ft | 367 kts | 228° |
| 2026-04-28 08:04 | 32.40733 | -7.07085 | 29345 ft | 365 kts | 228° |
| 2026-04-28 08:04 | 32.39048 | -7.09307 | 28974 ft | 361 kts | 228° |
| 2026-04-28 08:04 | 32.37612 | -7.11199 | 28662 ft | 359 kts | 228° |
| 2026-04-28 08:04 | 32.35945 | -7.13394 | 28303 ft | 356 kts | 228° |
| 2026-04-28 08:05 | 32.34301 | -7.15558 | 27936 ft | 353 kts | 228° |
| 2026-04-28 08:05 | 32.32667 | -7.17708 | 27575 ft | 350 kts | 228° |
| 2026-04-28 08:05 | 32.31034 | -7.19855 | 27209 ft | 348 kts | 228° |
| 2026-04-28 08:05 | 32.29423 | -7.21973 | 26864 ft | 346 kts | 228° |
| 2026-04-28 08:06 | 32.27813 | -7.24086 | 26527 ft | 344 kts | 228° |
| 2026-04-28 08:06 | 32.26239 | -7.26151 | 26175 ft | 342 kts | 228° |
| 2026-04-28 08:06 | 32.24649 | -7.28236 | 25767 ft | 342 kts | 228° |
| 2026-04-28 08:06 | 32.23054 | -7.30328 | 25402 ft | 341 kts | 228° |
| 2026-04-28 08:07 | 32.21463 | -7.32414 | 25043 ft | 340 kts | 229° |
| 2026-04-28 08:07 | 32.19885 | -7.34482 | 24706 ft | 338 kts | 229° |
| 2026-04-28 08:07 | 32.18309 | -7.36547 | 24363 ft | 337 kts | 229° |
| 2026-04-28 08:07 | 32.16759 | -7.38576 | 24033 ft | 336 kts | 229° |
| 2026-04-28 08:08 | 32.15193 | -7.40626 | 23688 ft | 335 kts | 229° |
| 2026-04-28 08:08 | 32.13636 | -7.42664 | 23314 ft | 334 kts | 229° |
| 2026-04-28 08:08 | 32.12085 | -7.44692 | 22938 ft | 332 kts | 229° |
| 2026-04-28 08:08 | 32.10533 | -7.46721 | 22578 ft | 330 kts | 229° |
| 2026-04-28 08:09 | 32.08997 | -7.48725 | 22239 ft | 328 kts | 229° |
| 2026-04-28 08:09 | 32.07491 | -7.50688 | 21910 ft | 325 kts | 229° |
| 2026-04-28 08:09 | 32.05972 | -7.52665 | 21580 ft | 323 kts | 229° |
| 2026-04-28 08:09 | 32.04463 | -7.54626 | 21255 ft | 321 kts | 229° |
| 2026-04-28 08:10 | 32.02981 | -7.56550 | 20936 ft | 319 kts | 229° |
| 2026-04-28 08:10 | 32.01495 | -7.58480 | 20612 ft | 317 kts | 229° |
| 2026-04-28 08:10 | 32.00016 | -7.60401 | 20296 ft | 315 kts | 229° |
| 2026-04-28 08:10 | 31.98543 | -7.62313 | 19978 ft | 313 kts | 229° |
| 2026-04-28 08:11 | 31.97080 | -7.64210 | 19668 ft | 312 kts | 229° |
| 2026-04-28 08:11 | 31.95640 | -7.66077 | 19360 ft | 310 kts | 229° |
| 2026-04-28 08:11 | 31.94187 | -7.67960 | 19037 ft | 309 kts | 229° |
| 2026-04-28 08:11 | 31.92741 | -7.69833 | 18728 ft | 308 kts | 229° |
| 2026-04-28 08:12 | 31.91299 | -7.71702 | 18413 ft | 307 kts | 229° |
| 2026-04-28 08:12 | 31.89869 | -7.73553 | 18075 ft | 307 kts | 229° |
| 2026-04-28 08:12 | 31.88436 | -7.75407 | 17727 ft | 306 kts | 229° |
| 2026-04-28 08:12 | 31.87018 | -7.77240 | 17404 ft | 304 kts | 229° |
| 2026-04-28 08:13 | 31.85593 | -7.79080 | 17084 ft | 302 kts | 229° |
| 2026-04-28 08:13 | 31.84555 | -7.80564 | 16811 ft | 300 kts | 240° |
| 2026-04-28 08:13 | 31.83829 | -7.82813 | 16547 ft | 295 kts | 262° |
| 2026-04-28 08:13 | 31.83720 | -7.85237 | 16243 ft | 293 kts | 269° |
| 2026-04-28 08:14 | 31.83719 | -7.87613 | 15923 ft | 293 kts | 270° |
| 2026-04-28 08:14 | 31.83733 | -7.90004 | 15615 ft | 291 kts | 270° |
| 2026-04-28 08:14 | 31.83745 | -7.92369 | 15319 ft | 290 kts | 270° |
| 2026-04-28 08:14 | 31.83752 | -7.94742 | 15014 ft | 289 kts | 270° |
| 2026-04-28 08:15 | 31.83755 | -7.97097 | 14718 ft | 288 kts | 269° |
| 2026-04-28 08:15 | 31.83755 | -7.99456 | 14418 ft | 287 kts | 269° |
| 2026-04-28 08:15 | 31.83752 | -8.01806 | 14123 ft | 286 kts | 269° |
| 2026-04-28 08:15 | 31.83747 | -8.04126 | 13825 ft | 286 kts | 269° |
| 2026-04-28 08:16 | 31.83741 | -8.06462 | 13501 ft | 285 kts | 269° |
| 2026-04-28 08:16 | 31.83734 | -8.08793 | 13181 ft | 284 kts | 269° |
| 2026-04-28 08:16 | 31.83726 | -8.11110 | 12869 ft | 283 kts | 269° |
| 2026-04-28 08:16 | 31.83718 | -8.13424 | 12565 ft | 282 kts | 269° |
| 2026-04-28 08:17 | 31.83709 | -8.15697 | 12267 ft | 280 kts | 269° |
| 2026-04-28 08:17 | 31.83700 | -8.17990 | 11968 ft | 279 kts | 270° |
| 2026-04-28 08:17 | 31.83691 | -8.20278 | 11669 ft | 279 kts | 270° |
| 2026-04-28 08:17 | 31.83681 | -8.22558 | 11371 ft | 278 kts | 270° |
| 2026-04-28 08:18 | 31.83671 | -8.24825 | 11077 ft | 277 kts | 270° |
| 2026-04-28 08:18 | 31.83660 | -8.27096 | 10777 ft | 277 kts | 270° |
| 2026-04-28 08:18 | 31.83649 | -8.29365 | 10482 ft | 277 kts | 270° |
| 2026-04-28 08:18 | 31.83638 | -8.31630 | 10188 ft | 277 kts | 270° |
| 2026-04-28 08:19 | 31.83626 | -8.33847 | 10035 ft | 271 kts | 270° |
| 2026-04-28 08:19 | 31.83614 | -8.36062 | 9776 ft | 273 kts | 271° |
| 2026-04-28 08:19 | 31.83282 | -8.38282 | 9446 ft | 281 kts | 245° |
| 2026-04-28 08:19 | 31.82078 | -8.40064 | 9195 ft | 281 kts | 216° |
| 2026-04-28 08:20 | 31.80373 | -8.41143 | 8961 ft | 277 kts | 204° |
| 2026-04-28 08:20 | 31.78601 | -8.42031 | 8663 ft | 276 kts | 202° |
| 2026-04-28 08:20 | 31.76829 | -8.42907 | 8386 ft | 275 kts | 203° |
| 2026-04-28 08:20 | 31.75074 | -8.43789 | 8110 ft | 274 kts | 203° |
| 2026-04-28 08:21 | 31.73328 | -8.44679 | 7842 ft | 272 kts | 204° |
| 2026-04-28 08:21 | 31.71615 | -8.45557 | 7571 ft | 271 kts | 204° |
| 2026-04-28 08:21 | 31.69888 | -8.46445 | 7291 ft | 270 kts | 204° |
| 2026-04-28 08:21 | 31.68090 | -8.47055 | 6982 ft | 271 kts | 182° |
| 2026-04-28 08:22 | 31.66259 | -8.46619 | 6714 ft | 270 kts | 153° |
| 2026-04-28 08:22 | 31.64840 | -8.45236 | 6435 ft | 272 kts | 125° |
| 2026-04-28 08:22 | 31.64103 | -8.43206 | 6164 ft | 272 kts | 101° |
| 2026-04-28 08:22 | 31.63860 | -8.41009 | 5877 ft | 271 kts | 96° |
| 2026-04-28 08:23 | 31.63692 | -8.38810 | 5602 ft | 271 kts | 95° |
| 2026-04-28 08:23 | 31.63530 | -8.36616 | 5453 ft | 266 kts | 96° |
| 2026-04-28 08:23 | 31.63366 | -8.34475 | 5310 ft | 260 kts | 96° |
| 2026-04-28 08:23 | 31.63199 | -8.32388 | 5190 ft | 253 kts | 96° |
| 2026-04-28 08:24 | 31.63033 | -8.30359 | 5105 ft | 243 kts | 96° |
| 2026-04-28 08:24 | 31.62875 | -8.28467 | 5006 ft | 230 kts | 96° |
| 2026-04-28 08:24 | 31.62719 | -8.26624 | 4773 ft | 223 kts | 97° |
| 2026-04-28 08:24 | 31.62567 | -8.24843 | 4542 ft | 215 kts | 97° |
| 2026-04-28 08:25 | 31.62419 | -8.23120 | 4318 ft | 208 kts | 97° |
| 2026-04-28 08:25 | 31.62275 | -8.21456 | 4119 ft | 201 kts | 97° |
| 2026-04-28 08:25 | 31.62134 | -8.19842 | 3903 ft | 196 kts | 97° |
| 2026-04-28 08:26 | 31.61850 | -8.16705 | 3449 ft | 195 kts | 96° |
| 2026-04-28 08:26 | 31.61710 | -8.15133 | 3204 ft | 193 kts | 96° |
| 2026-04-28 08:26 | 31.61570 | -8.13568 | 2943 ft | 191 kts | 96° |
| 2026-04-28 08:26 | 31.61436 | -8.12056 | 2687 ft | 182 kts | 96° |
| 2026-04-28 08:27 | 31.61309 | -8.10632 | 2480 ft | 167 kts | 96° |
| 2026-04-28 08:27 | 31.61194 | -8.09332 | 2273 ft | 155 kts | 97° |
| 2026-04-28 08:27 | 31.61081 | -8.08056 | 2015 ft | 158 kts | 96° |
| 2026-04-28 08:27 | 31.60976 | -8.06781 | 1820 ft | 156 kts | 96° |
| 2026-04-28 08:28 | 31.60859 | -8.05519 | 1635 ft | 155 kts | 96° |
| 2026-04-28 08:28 | 31.60747 | -8.04303 | 1538 ft | 139 kts | 95° |
| 2026-04-28 08:28 | 31.60668 | -8.03375 | 1540 ft | 85 kts | 96° |
| 2026-04-28 08:28 | 31.60633 | -8.02976 | 1545 ft | 37 kts | 97° |
| 2026-04-28 08:29 | 31.60608 | -8.02713 | 1548 ft | 19 kts | 96° |
| 2026-04-28 08:29 | 31.60543 | -8.02637 | 1548 ft | 10 kts | 181° |
| 2026-04-28 08:29 | 31.60525 | -8.02639 | 1538 ft | 1 kts | 186° |
| 2026-04-28 08:29 | 31.60518 | -8.02640 | 1539 ft | 1 kts | 187° |
| 2026-04-28 08:30 | 31.60511 | -8.02641 | 1542 ft | 2 kts | 188° |
| 2026-04-28 08:30 | 31.60489 | -8.02645 | 1546 ft | 5 kts | 187° |
| 2026-04-28 08:30 | 31.60450 | -8.02647 | 1545 ft | 6 kts | 172° |
| 2026-04-28 08:30 | 31.60425 | -8.02611 | 1546 ft | 6 kts | 110° |
| 2026-04-28 08:31 | 31.60419 | -8.02564 | 1545 ft | 6 kts | 95° |
| 2026-04-28 08:31 | 31.60417 | -8.02517 | 1542 ft | 6 kts | 93° |
| 2026-04-28 08:31 | 31.60415 | -8.02471 | 1548 ft | 5 kts | 93° |
| 2026-04-28 08:31 | 31.60412 | -8.02431 | 1539 ft | 5 kts | 95° |
| 2026-04-28 08:32 | 31.60399 | -8.02396 | 1542 ft | 5 kts | 142° |
| 2026-04-28 08:32 | 31.60373 | -8.02389 | 1540 ft | 3 kts | 189° |
| 2026-04-28 08:32 | 31.60349 | -8.02397 | 1546 ft | 3 kts | 191° |
| 2026-04-28 08:32 | 31.60330 | -8.02400 | 1548 ft | 2 kts | 187° |
| 2026-04-28 08:33 | 31.60314 | -8.02403 | 1545 ft | 2 kts | 185° |
| 2026-04-28 08:33 | 31.60299 | -8.02404 | 1542 ft | 1 kts | 184° |
| 2026-04-28 08:33 | 31.60298 | -8.02404 | 1542 ft | 1 kts | 184° |
| 2026-04-28 08:33 | 31.60293 | -8.02404 | 1548 ft | 0 kts | 185° |